Time;durP1;ratioP1;P1;durP2;ratioP2;P2;SDS_P1;SDS_P2;PMS_P1;PMS_P2;Temp;Humidity;BMP_temperature;BMP_pressure;BME280_temperature;BME280_humidity;BME280_pressure;Samples;Min_cycle;Max_cycle;Signal;HPM_P1;HPM_P2
2022/05/10 00:00:33;;;;;;;10.73;5.13;;;12.80;96.60;;;;;;5009951;28;20531;-39
2022/05/10 00:03:01;;;;;;;10.25;5.32;;;12.40;96.70;;;;;;5009241;28;20547;-39
2022/05/10 00:05:32;;;;;;;12.88;4.35;;;12.40;96.80;;;;;;5009299;28;20054;-39
2022/05/10 00:07:59;;;;;;;16.45;5.95;;;12.20;97.10;;;;;;5010387;28;20767;-39
2022/05/10 00:10:25;;;;;;;9.30;4.68;;;12.20;97.40;;;;;;5010132;28;20057;-39
2022/05/10 00:12:52;;;;;;;11.65;4.45;;;12.10;97.40;;;;;;5008797;28;20125;-39
2022/05/10 00:15:18;;;;;;;14.50;4.88;;;12.30;97.60;;;;;;5009881;28;20107;-39
2022/05/10 00:17:43;;;;;;;14.35;5.40;;;12.00;97.90;;;;;;5010414;28;20045;-38
2022/05/10 00:20:13;;;;;;;13.98;4.65;;;12.10;97.70;;;;;;5009711;28;20800;-39
2022/05/10 00:22:39;;;;;;;10.70;4.35;;;12.20;97.80;;;;;;5009960;28;20137;-38
2022/05/10 00:25:07;;;;;;;14.40;4.90;;;12.10;97.80;;;;;;4991745;28;20128;-40
2022/05/10 00:27:33;;;;;;;15.05;4.85;;;12.10;97.60;;;;;;5008380;28;20042;-39
2022/05/10 00:30:00;;;;;;;12.65;4.55;;;12.20;97.50;;;;;;5008020;28;20042;-39
2022/05/10 00:32:31;;;;;;;12.55;3.90;;;12.20;97.40;;;;;;5010100;28;20881;-39
2022/05/10 00:34:56;;;;;;;11.65;4.35;;;12.30;97.00;;;;;;5009578;28;20401;-39
2022/05/10 00:37:23;;;;;;;6.60;3.30;;;12.40;96.80;;;;;;5009756;28;20046;-39
2022/05/10 00:39:50;;;;;;;9.95;4.28;;;12.30;96.70;;;;;;5010010;28;20053;-39
2022/05/10 00:42:30;;;;;;;8.82;4.05;;;12.30;96.70;;;;;;5009859;28;20041;-39
2022/05/10 00:45:07;;;;;;;12.88;3.88;;;12.30;96.50;;;;;;5009565;28;20085;-39
2022/05/10 00:47:41;;;;;;;10.85;4.40;;;12.30;96.40;;;;;;5009468;28;20101;-39
2022/05/10 00:50:32;;;;;;;7.38;4.10;;;12.30;96.50;;;;;;5009474;28;20132;-39
2022/05/10 00:53:04;;;;;;;8.60;3.92;;;12.30;96.50;;;;;;5008064;28;20045;-39
2022/05/10 00:55:47;;;;;;;7.47;3.88;;;12.20;96.30;;;;;;5009625;28;20046;-39
2022/05/10 00:58:37;;;;;;;12.20;4.05;;;12.20;97.00;;;;;;5009330;28;20050;-39
2022/05/10 01:01:04;;;;;;;7.75;4.32;;;12.20;97.30;;;;;;5009207;28;20038;-38
2022/05/10 01:03:39;;;;;;;15.23;4.53;;;12.00;97.20;;;;;;5009784;28;20096;-39
2022/05/10 01:06:14;;;;;;;12.82;5.40;;;12.00;97.20;;;;;;5009370;28;20044;-38
2022/05/10 01:08:50;;;;;;;9.50;4.95;;;12.00;97.00;;;;;;5009527;28;20371;-39
2022/05/10 01:11:25;;;;;;;12.07;4.00;;;12.00;96.90;;;;;;5008902;28;20494;-39
2022/05/10 01:14:08;;;;;;;10.35;5.22;;;12.20;96.90;;;;;;5010001;28;20089;-39
2022/05/10 01:16:34;;;;;;;7.82;3.97;;;12.00;97.00;;;;;;5008892;28;20179;-39
2022/05/10 01:19:00;;;;;;;10.32;4.47;;;12.20;96.80;;;;;;5009596;28;20084;-39
2022/05/10 01:21:45;;;;;;;9.60;4.03;;;12.10;97.00;;;;;;5009481;28;20042;-39
2022/05/10 01:24:16;;;;;;;12.15;4.63;;;12.10;97.60;;;;;;5009323;28;20103;-39
2022/05/10 01:27:15;;;;;;;7.80;4.43;;;12.00;97.50;;;;;;5027263;28;20141;-39
2022/05/10 01:29:51;;;;;;;9.63;4.78;;;11.90;98.40;;;;;;5028743;28;20052;-39
2022/05/10 01:35:12;;;;;;;9.02;4.25;;;12.10;98.30;;;;;;5028528;28;20053;-39
2022/05/10 01:37:44;;;;;;;9.98;6.05;;;11.80;98.30;;;;;;5028827;28;20041;-38
2022/05/10 01:40:29;;;;;;;11.90;5.45;;;11.80;98.40;;;;;;5028513;28;20049;-39
2022/05/10 01:43:47;;;;;;;9.85;4.78;;;11.80;98.50;;;;;;5028964;28;20720;-39
2022/05/10 01:46:25;;;;;;;12.65;5.55;;;11.90;98.50;;;;;;5019260;28;20460;-39
2022/05/10 01:48:54;;;;;;;10.75;5.85;;;12.00;98.00;;;;;;5028667;28;20052;-39
2022/05/10 01:51:31;;;;;;;13.38;5.60;;;12.10;97.80;;;;;;5028674;28;20462;-39
2022/05/10 01:53:57;;;;;;;12.90;5.40;;;12.20;97.80;;;;;;5028752;28;20049;-39
2022/05/10 01:56:28;;;;;;;12.32;5.20;;;12.30;97.40;;;;;;5028311;28;20045;-39
2022/05/10 01:58:54;;;;;;;10.93;6.07;;;12.30;97.60;;;;;;5028783;28;20041;-39
2022/05/10 02:01:20;;;;;;;17.42;6.05;;;12.50;97.20;;;;;;5028339;28;20080;-38
2022/05/10 02:04:01;;;;;;;14.60;6.38;;;12.40;97.30;;;;;;5027442;28;20041;-38
2022/05/10 02:06:40;;;;;;;11.82;5.95;;;12.50;97.40;;;;;;5026884;28;20125;-39
2022/05/10 02:09:22;;;;;;;10.82;6.45;;;12.50;97.40;;;;;;5028323;28;20492;-38
2022/05/10 02:11:58;;;;;;;11.13;5.93;;;12.40;97.40;;;;;;5028762;28;20116;-39
2022/05/10 02:14:27;;;;;;;14.23;7.03;;;12.90;97.70;;;;;;5028309;28;20041;-39
2022/05/10 02:16:56;;;;;;;13.63;5.90;;;12.60;97.30;;;;;;5028397;28;20040;-40
2022/05/10 02:19:27;;;;;;;10.65;6.72;;;12.60;97.30;;;;;;5028503;28;20055;-39
2022/05/10 02:22:03;;;;;;;17.92;7.35;;;12.70;97.40;;;;;;5028723;28;20397;-39
2022/05/10 02:24:55;;;;;;;17.00;6.90;;;12.60;97.40;;;;;;5029629;28;20151;-39
2022/05/10 02:27:27;;;;;;;13.75;6.93;;;12.90;97.80;;;;;;5007673;28;20062;-38
2022/05/10 02:30:03;;;;;;;12.70;6.85;;;12.90;97.30;;;;;;5012214;28;20050;-38
2022/05/10 02:33:08;;;;;;;14.25;6.15;;;12.70;97.50;;;;;;5012163;28;20034;-39
2022/05/10 02:35:40;;;;;;;12.38;6.55;;;12.70;97.60;;;;;;5012086;28;20038;-38
2022/05/10 02:38:08;;;;;;;15.05;7.25;;;12.70;97.20;;;;;;5012221;28;20070;-39
2022/05/10 02:40:34;;;;;;;11.73;6.82;;;12.80;97.30;;;;;;5011750;28;20046;-39
2022/05/10 02:43:01;;;;;;;9.43;6.63;;;12.70;97.50;;;;;;5011857;28;20037;-39
2022/05/10 02:45:27;;;;;;;11.07;7.00;;;12.60;97.60;;;;;;5011873;28;20052;-39
2022/05/10 02:47:53;;;;;;;16.27;8.32;;;13.30;98.20;;;;;;5011811;28;20058;-39
2022/05/10 02:50:28;;;;;;;14.60;7.90;;;12.70;98.20;;;;;;5011493;28;20068;-39
2022/05/10 02:52:54;;;;;;;14.57;7.93;;;12.50;98.60;;;;;;5011812;28;20049;-38
2022/05/10 02:55:35;;;;;;;16.13;8.93;;;12.60;98.50;;;;;;5011560;28;20045;-39
2022/05/10 02:58:09;;;;;;;16.88;8.32;;;12.70;98.90;;;;;;5010719;28;20505;-39
2022/05/10 03:00:34;;;;;;;18.92;8.23;;;12.60;98.90;;;;;;5011889;28;20038;-39
2022/05/10 03:03:07;;;;;;;15.05;9.35;;;12.80;99.00;;;;;;5011984;28;20440;-38
2022/05/10 03:05:33;;;;;;;15.95;8.20;;;12.50;99.40;;;;;;5011629;28;20053;-39
2022/05/10 03:07:59;;;;;;;14.20;9.40;;;12.60;99.40;;;;;;5011672;28;20046;-39
2022/05/10 03:10:25;;;;;;;19.90;9.05;;;12.30;99.60;;;;;;5011239;28;20042;-39
2022/05/10 03:12:51;;;;;;;15.93;9.25;;;12.70;99.90;;;;;;5011447;28;20467;-39
2022/05/10 03:15:16;;;;;;;13.75;8.77;;;12.40;99.90;;;;;;5011399;28;20056;-39
2022/05/10 03:17:42;;;;;;;14.88;8.38;;;12.70;99.90;;;;;;5010318;28;20056;-40
2022/05/10 03:20:08;;;;;;;14.13;9.55;;;12.50;99.90;;;;;;5010180;28;20663;-38
2022/05/10 03:22:34;;;;;;;15.60;9.52;;;12.40;99.90;;;;;;5010941;28;20081;-39
2022/05/10 03:25:00;;;;;;;16.08;9.82;;;13.10;99.90;;;;;;5009613;28;20045;-39
2022/05/10 03:27:26;;;;;;;14.27;9.48;;;12.60;99.90;;;;;;5009801;28;20042;-39
2022/05/10 03:29:51;;;;;;;20.08;10.85;;;12.40;99.90;;;;;;5010938;28;20515;-39
2022/05/10 03:32:17;;;;;;;20.70;9.85;;;12.50;99.90;;;;;;5010760;28;20042;-38
2022/05/10 03:34:57;;;;;;;15.90;9.20;;;12.40;99.90;;;;;;5011080;28;20049;-39
2022/05/10 03:37:24;;;;;;;19.20;10.55;;;12.40;99.90;;;;;;5011082;28;20085;-39
2022/05/10 03:39:50;;;;;;;15.52;9.02;;;12.60;99.90;;;;;;5011346;28;20073;-39
2022/05/10 03:42:15;;;;;;;15.38;10.10;;;12.50;99.90;;;;;;5011154;28;20048;-38
2022/05/10 03:44:41;;;;;;;17.83;10.23;;;12.40;99.90;;;;;;5010935;28;20497;-39
2022/05/10 03:47:09;;;;;;;19.15;10.55;;;12.30;99.90;;;;;;5009764;28;20058;-38
2022/05/10 03:49:35;;;;;;;17.15;10.55;;;12.50;99.90;;;;;;5011199;28;20045;-39
2022/05/10 03:52:02;;;;;;;21.13;10.82;;;12.30;99.90;;;;;;5011433;28;20108;-39
2022/05/10 03:54:28;;;;;;;20.20;11.07;;;12.30;99.90;;;;;;5010908;28;20046;-38
2022/05/10 03:56:54;;;;;;;21.52;10.25;;;12.30;99.90;;;;;;5011100;28;20046;-39
2022/05/10 03:59:20;;;;;;;15.32;10.35;;;12.30;99.90;;;;;;5010643;28;20470;-39
2022/05/10 04:01:46;;;;;;;18.85;10.25;;;12.60;99.90;;;;;;5010857;28;20061;-38
2022/05/10 04:04:13;;;;;;;24.13;10.88;;;12.40;99.90;;;;;;5010772;28;20129;-38
2022/05/10 04:06:39;;;;;;;15.43;10.10;;;12.70;99.90;;;;;;5010239;28;20042;-39
2022/05/10 04:09:05;;;;;;;16.63;11.27;;;12.40;99.90;;;;;;5010792;28;20052;-38
2022/05/10 04:11:31;;;;;;;17.88;10.88;;;12.70;99.90;;;;;;5010248;28;20137;-39
2022/05/10 04:13:56;;;;;;;17.90;10.73;;;12.30;99.90;;;;;;5010368;28;20113;-38
2022/05/10 04:16:22;;;;;;;17.33;10.27;;;12.30;99.90;;;;;;5008760;28;20081;-38
2022/05/10 04:18:48;;;;;;;15.32;10.40;;;12.50;99.90;;;;;;5010548;28;20038;-38
2022/05/10 04:21:14;;;;;;;15.70;10.75;;;12.40;99.90;;;;;;5010290;28;20061;-39
2022/05/10 04:23:39;;;;;;;17.25;10.27;;;12.50;99.90;;;;;;5008848;28;20470;-38
2022/05/10 04:26:08;;;;;;;16.75;10.80;;;12.20;99.90;;;;;;5008534;28;20054;-39
2022/05/10 04:28:35;;;;;;;19.38;10.77;;;12.20;99.90;;;;;;5009902;28;20037;-38
2022/05/10 04:31:02;;;;;;;16.90;10.88;;;12.50;99.90;;;;;;5010241;28;20049;-39
2022/05/10 04:33:28;;;;;;;14.60;10.43;;;12.30;99.90;;;;;;5009933;28;20052;-39
2022/05/10 04:35:54;;;;;;;19.80;10.65;;;12.30;99.90;;;;;;5010134;28;20119;-38
2022/05/10 04:38:19;;;;;;;17.35;11.02;;;12.40;99.90;;;;;;5008703;28;20041;-39
2022/05/10 04:43:30;;;;;;;17.30;10.70;;;12.40;99.90;;;;;;5009700;28;20221;-39
2022/05/10 04:45:56;;;;;;;17.95;11.23;;;12.40;99.90;;;;;;5009192;28;20045;-39
2022/05/10 04:48:22;;;;;;;24.27;12.40;;;12.50;99.90;;;;;;5009319;28;20569;-39
2022/05/10 04:50:48;;;;;;;17.92;11.18;;;12.60;99.90;;;;;;5009544;28;20045;-38
2022/05/10 04:53:14;;;;;;;22.27;12.10;;;12.60;99.90;;;;;;5009528;28;20048;-38
2022/05/10 04:55:40;;;;;;;18.83;10.77;;;12.50;99.90;;;;;;5009419;28;20050;-39
2022/05/10 04:58:06;;;;;;;17.67;11.38;;;12.80;99.90;;;;;;5009361;28;20045;-39
2022/05/10 05:00:32;;;;;;;16.85;10.63;;;12.90;99.90;;;;;;5009352;28;20100;-39
2022/05/10 05:02:58;;;;;;;20.85;11.27;;;12.90;99.90;;;;;;5009444;28;20108;-39
2022/05/10 05:05:24;;;;;;;17.63;11.48;;;13.00;99.90;;;;;;5009774;28;20511;-39
2022/05/10 05:07:49;;;;;;;21.10;11.70;;;13.20;99.90;;;;;;5009472;28;20084;-39
2022/05/10 05:10:16;;;;;;;16.52;11.07;;;13.20;99.90;;;;;;5008621;28;20057;-39
2022/05/10 05:12:42;;;;;;;19.15;12.07;;;13.30;99.90;;;;;;5009201;28;20245;-39
2022/05/10 05:15:11;;;;;;;17.15;10.88;;;13.40;99.90;;;;;;5009419;28;20563;-38
2022/05/10 05:17:37;;;;;;;22.45;11.18;;;13.50;99.90;;;;;;5008819;28;20038;-39
2022/05/10 05:20:03;;;;;;;21.27;11.75;;;13.50;99.90;;;;;;5008076;28;20053;-39
2022/05/10 05:22:29;;;;;;;20.08;11.10;;;13.60;99.90;;;;;;5008927;28;20076;-39
2022/05/10 05:24:55;;;;;;;21.92;11.77;;;13.70;99.90;;;;;;5008901;28;20089;-39
2022/05/10 05:27:21;;;;;;;22.48;11.25;;;13.80;99.90;;;;;;5009259;28;20053;-39
2022/05/10 05:29:47;;;;;;;18.45;11.30;;;13.80;99.90;;;;;;5009229;28;20049;-39
2022/05/10 05:32:14;;;;;;;16.25;10.57;;;13.90;99.90;;;;;;5009346;28;20042;-38
2022/05/10 05:34:40;;;;;;;19.30;11.45;;;13.90;99.90;;;;;;5008961;28;20390;-39
2022/05/10 05:39:50;;;;;;;22.65;13.07;;;14.20;99.60;;;;;;5008878;28;20345;-39
2022/05/10 05:42:17;;;;;;;18.63;11.80;;;14.30;99.00;;;;;;5008900;28;20466;-39
2022/05/10 05:44:43;;;;;;;16.30;11.07;;;14.30;98.50;;;;;;5008599;28;20171;-39
2022/05/10 05:47:09;;;;;;;20.80;11.63;;;14.50;98.20;;;;;;5008975;28;20149;-39
2022/05/10 05:49:34;;;;;;;17.65;10.88;;;14.70;97.90;;;;;;5008972;28;20133;-39
2022/05/10 05:52:03;;;;;;;18.02;11.55;;;14.90;97.30;;;;;;5008007;28;20046;-39
2022/05/10 05:54:28;;;;;;;20.90;11.85;;;15.00;96.80;;;;;;5009189;28;20050;-38
2022/05/10 05:57:06;;;;;;;17.25;11.30;;;15.20;96.40;;;;;;5010740;28;20500;-39
2022/05/10 05:59:33;;;;;;;20.08;10.95;;;15.30;95.80;;;;;;5012983;28;20037;-39
2022/05/10 06:01:59;;;;;;;18.52;12.13;;;15.40;95.50;;;;;;5012970;28;20128;-39
2022/05/10 06:04:25;;;;;;;15.88;10.65;;;15.80;95.20;;;;;;5011354;28;20050;-39
2022/05/10 06:06:50;;;;;;;18.25;11.35;;;15.60;94.90;;;;;;5012617;28;20088;-39
2022/05/10 06:09:22;;;;;;;16.15;10.95;;;15.70;94.70;;;;;;5012632;28;20057;-41
2022/05/10 06:11:49;;;;;;;17.63;11.82;;;16.00;94.40;;;;;;5012552;28;20073;-39
2022/05/10 06:14:14;;;;;;;16.80;10.80;;;15.90;94.20;;;;;;5012844;28;20111;-39
2022/05/10 06:16:41;;;;;;;16.00;11.55;;;16.00;94.30;;;;;;5021630;28;20049;-40
2022/05/10 06:19:09;;;;;;;38.75;11.93;;;16.20;94.60;;;;;;5029767;28;20057;-39
2022/05/10 06:21:35;;;;;;;21.90;11.20;;;16.30;93.70;;;;;;5026208;28;20439;-39
2022/05/10 06:24:01;;;;;;;17.58;11.73;;;16.40;93.10;;;;;;5026535;28;20037;-39
2022/05/10 06:26:26;;;;;;;16.38;10.88;;;16.60;93.10;;;;;;5014304;28;20041;-41
2022/05/10 06:28:52;;;;;;;17.77;10.55;;;16.90;92.70;;;;;;5014217;28;20108;-39
2022/05/10 06:31:18;;;;;;;11.93;9.32;;;17.50;92.00;;;;;;5014197;28;20095;-39
2022/05/10 06:33:43;;;;;;;15.68;10.00;;;18.10;90.90;;;;;;5013870;28;20076;-39
2022/05/10 06:36:09;;;;;;;14.20;9.68;;;18.70;90.10;;;;;;5014666;28;20052;-41
2022/05/10 06:38:36;;;;;;;12.52;9.13;;;19.30;88.20;;;;;;5014167;28;20559;-39
2022/05/10 06:41:04;;;;;;;13.10;8.70;;;19.80;85.90;;;;;;5014176;28;20042;-40
2022/05/10 06:43:38;;;;;;;16.55;8.35;;;20.10;83.60;;;;;;5015081;28;20389;-40
2022/05/10 06:46:18;;;;;;;9.85;7.55;;;20.80;80.20;;;;;;5023919;28;20049;-40
2022/05/10 06:48:47;;;;;;;11.80;7.57;;;21.20;77.50;;;;;;5010632;28;20057;-40
2022/05/10 06:51:15;;;;;;;13.57;6.82;;;22.00;76.80;;;;;;5012378;28;20045;-40
2022/05/10 06:53:41;;;;;;;8.93;6.63;;;22.90;73.40;;;;;;5011960;28;20629;-40
2022/05/10 06:56:08;;;;;;;11.02;6.50;;;23.10;71.80;;;;;;5011998;28;20412;-39
2022/05/10 06:58:34;;;;;;;10.02;6.00;;;23.30;70.10;;;;;;5010429;28;20054;-40
2022/05/10 07:01:01;;;;;;;10.15;6.50;;;23.60;69.30;;;;;;5011496;28;20100;-40
2022/05/10 07:03:31;;;;;;;9.65;6.00;;;23.70;67.60;;;;;;5011783;28;20048;-42
2022/05/10 07:05:58;;;;;;;8.75;5.75;;;23.60;66.50;;;;;;5011568;28;20061;-42
2022/05/10 07:08:24;;;;;;;11.82;5.25;;;23.70;65.90;;;;;;5010602;28;20058;-40
2022/05/10 07:10:50;;;;;;;13.63;6.05;;;23.80;65.10;;;;;;5011203;28;20045;-41
2022/05/10 07:13:22;;;;;;;10.75;5.97;;;24.00;64.80;;;;;;5011449;28;20053;-42
2022/05/10 07:15:49;;;;;;;9.27;5.57;;;24.50;63.70;;;;;;5011356;28;20050;-42
2022/05/10 07:18:16;;;;;;;13.00;6.07;;;24.90;62.80;;;;;;5016544;28;20053;-42
2022/05/10 07:20:43;;;;;;;8.88;4.60;;;25.50;61.60;;;;;;5019952;28;20057;-41
2022/05/10 07:23:10;;;;;;;9.68;4.32;;;26.40;60.30;;;;;;5018860;28;20056;-41
2022/05/10 07:25:36;;;;;;;11.88;4.93;;;27.40;59.40;;;;;;5021458;28;20033;-41
2022/05/10 07:28:02;;;;;;;13.63;5.15;;;28.70;57.00;;;;;;5013680;28;20386;-42
2022/05/10 07:30:28;;;;;;;10.40;5.30;;;29.70;54.90;;;;;;5011456;28;20038;-42
2022/05/10 07:32:54;;;;;;;10.52;5.00;;;30.70;52.90;;;;;;5010717;28;20370;-42
2022/05/10 07:36:23;;;;;;;12.10;5.07;;;31.50;51.00;;;;;;5011091;28;20045;-44
2022/05/10 07:38:13;;;;;;;10.05;5.30;;;32.10;49.90;;;;;;5010737;28;20046;-44
2022/05/10 07:40:40;;;;;;;10.40;5.18;;;33.00;49.00;;;;;;5009503;28;20050;-43
2022/05/10 07:43:06;;;;;;;10.68;5.07;;;33.30;47.70;;;;;;5010907;28;20401;-44
2022/05/10 07:45:32;;;;;;;15.30;5.30;;;33.30;45.90;;;;;;5010813;28;20034;-42
2022/05/10 07:48:02;;;;;;;9.07;5.22;;;33.10;45.80;;;;;;5009826;28;20054;-44
2022/05/10 07:50:28;;;;;;;12.52;5.13;;;32.80;46.50;;;;;;5010734;28;20053;-43
2022/05/10 07:52:54;;;;;;;12.93;5.10;;;32.60;45.20;;;;;;5010342;28;20037;-41
2022/05/10 07:55:19;;;;;;;11.52;5.30;;;32.40;45.20;;;;;;5010463;28;20050;-42
2022/05/10 07:57:45;;;;;;;10.23;5.13;;;32.40;45.30;;;;;;5010797;28;20052;-43
2022/05/10 08:00:15;;;;;;;10.52;4.80;;;32.50;45.30;;;;;;5010131;28;20037;-41
2022/05/10 08:02:43;;;;;;;7.63;5.03;;;32.70;45.00;;;;;;5010776;28;20058;-43
2022/05/10 08:05:18;;;;;;;9.50;4.85;;;33.00;44.10;;;;;;5010187;28;20056;-42
2022/05/10 08:07:44;;;;;;;11.80;4.97;;;33.50;43.70;;;;;;5010571;28;20068;-43
2022/05/10 08:10:11;;;;;;;9.43;4.88;;;33.80;43.50;;;;;;5010438;28;20056;-42
2022/05/10 08:12:37;;;;;;;10.30;5.43;;;34.00;43.30;;;;;;5010528;28;20088;-42
2022/05/10 08:15:04;;;;;;;9.20;5.18;;;34.30;42.80;;;;;;5010245;28;20052;-41
2022/05/10 08:17:30;;;;;;;16.40;6.18;;;34.50;42.60;;;;;;5010151;28;20042;-42
2022/05/10 08:19:56;;;;;;;14.38;5.50;;;34.60;42.00;;;;;;5007795;28;20440;-42
2022/05/10 08:22:22;;;;;;;11.02;5.25;;;34.60;41.50;;;;;;5010461;28;20096;-43
2022/05/10 08:24:48;;;;;;;10.70;5.88;;;34.70;40.90;;;;;;5008949;28;20520;-43
2022/05/10 08:27:14;;;;;;;14.93;5.20;;;34.60;41.20;;;;;;5010018;28;20149;-43
2022/05/10 08:29:41;;;;;;;9.88;5.05;;;34.10;41.50;;;;;;5010127;28;20038;-43
2022/05/10 08:32:08;;;;;;;9.65;4.43;;;33.50;42.20;;;;;;5009760;28;20052;-42
2022/05/10 08:34:35;;;;;;;10.15;5.10;;;33.40;43.00;;;;;;5009526;28;20056;-43
2022/05/10 08:37:04;;;;;;;11.93;5.45;;;33.60;42.60;;;;;;5009766;28;20038;-45
2022/05/10 08:39:31;;;;;;;11.85;5.32;;;33.60;42.10;;;;;;5009978;28;20046;-43
2022/05/10 08:41:59;;;;;;;10.90;4.63;;;33.80;42.80;;;;;;5009439;28;20485;-41
2022/05/10 08:44:29;;;;;;;12.38;3.60;;;33.60;42.50;;;;;;5009585;28;20057;-43
2022/05/10 08:47:06;;;;;;;7.03;3.50;;;33.30;42.20;;;;;;5009345;28;20041;-44
2022/05/10 08:49:51;;;;;;;7.95;3.28;;;32.70;42.10;;;;;;5010436;28;20081;-42
2022/05/10 08:52:17;;;;;;;10.77;4.13;;;31.90;42.30;;;;;;5009956;28;20084;-43
2022/05/10 08:54:43;;;;;;;9.10;3.10;;;31.00;42.70;;;;;;5010029;28;20401;-41
2022/05/10 08:57:38;;;;;;;13.73;4.13;;;30.30;43.80;;;;;;5009589;28;20038;-43
2022/05/10 09:00:12;;;;;;;10.52;3.70;;;29.60;44.50;;;;;;5009238;28;20453;-42
2022/05/10 09:02:51;;;;;;;5.85;4.07;;;28.90;45.10;;;;;;5009633;28;20041;-41
2022/05/10 09:05:38;;;;;;;10.68;4.85;;;28.40;45.80;;;;;;5009309;28;20376;-42
2022/05/10 09:08:25;;;;;;;9.15;3.67;;;27.90;47.00;;;;;;5009279;28;20049;-42
2022/05/10 09:11:02;;;;;;;9.48;3.83;;;27.40;47.60;;;;;;5009457;28;20371;-42
2022/05/10 09:13:29;;;;;;;10.93;4.07;;;27.10;48.60;;;;;;5007949;28;20429;-43
2022/05/10 09:16:01;;;;;;;11.35;4.00;;;26.80;48.80;;;;;;5009336;28;20050;-41
2022/05/10 09:18:39;;;;;;;8.25;3.95;;;26.60;49.00;;;;;;5007918;28;20033;-41
2022/05/10 09:21:17;;;;;;;10.52;4.35;;;26.40;49.20;;;;;;5009423;28;20042;-41
2022/05/10 09:23:58;;;;;;;9.60;4.20;;;26.40;49.70;;;;;;5009624;28;20038;-41
2022/05/10 09:26:31;;;;;;;10.70;4.35;;;26.50;49.40;;;;;;5007765;28;20050;-42
2022/05/10 09:29:05;;;;;;;13.43;4.35;;;26.50;49.20;;;;;;5007908;28;20078;-42
2022/05/10 09:37:41;;;;;;;12.32;4.57;;;26.00;50.60;;;;;;4967197;28;20051;-41
2022/05/10 09:40:26;;;;;;;8.10;5.38;;;25.80;55.50;;;;;;4967335;28;20129;-41
2022/05/10 09:43:10;;;;;;;8.40;4.55;;;25.60;57.40;;;;;;4990516;28;20069;-42
2022/05/10 09:45:37;;;;;;;10.20;5.00;;;25.50;60.90;;;;;;5009404;28;20125;-41
2022/05/10 09:48:09;;;;;;;12.20;5.90;;;25.40;62.50;;;;;;5008923;28;20058;-43
2022/05/10 09:50:42;;;;;;;15.05;5.72;;;25.20;52.60;;;;;;5008898;28;20050;-44
2022/05/10 09:53:18;;;;;;;9.13;4.88;;;25.10;54.00;;;;;;5009347;28;20551;-43
2022/05/10 09:56:19;;;;;;;10.52;5.35;;;25.00;74.50;;;;;;5009144;28;20125;-43
2022/05/10 09:59:04;;;;;;;9.50;4.22;;;25.00;84.40;;;;;;5009084;28;20551;-44
2022/05/10 10:01:48;;;;;;;7.18;4.45;;;24.90;85.20;;;;;;5008969;28;20045;-43
2022/05/10 10:04:19;;;;;;;10.43;4.88;;;25.20;83.20;;;;;;5008892;28;20131;-44
2022/05/10 10:06:45;;;;;;;;;;;25.40;80.30;;;;;;5009134;28;20053;-43
2022/05/10 10:09:29;;;;;;;8.60;4.32;;;25.70;82.40;;;;;;5008766;28;19921;-46
2022/05/10 10:11:54;;;;;;;11.18;4.45;;;25.80;82.20;;;;;;5006638;28;20077;-45
2022/05/10 10:14:40;;;;;;;10.80;5.07;;;26.10;81.50;;;;;;5007706;28;20077;-47
2022/05/10 10:17:16;;;;;;;7.05;3.90;;;26.20;78.90;;;;;;5008698;28;20044;-46
2022/05/10 10:19:48;;;;;;;8.13;3.10;;;26.30;80.80;;;;;;5009230;28;20042;-45
2022/05/10 10:22:19;;;;;;;11.98;3.50;;;26.40;80.40;;;;;;5009081;28;20042;-46
2022/05/10 10:25:08;;;;;;;10.00;3.23;;;26.70;80.00;;;;;;5009394;28;20046;-46
2022/05/10 10:27:46;;;;;;;14.35;3.83;;;26.80;77.20;;;;;;4998558;28;20180;-48
2022/05/10 10:30:35;;;;;;;8.82;3.65;;;26.80;76.60;;;;;;5008673;28;20100;-47
2022/05/10 10:33:16;;;;;;;5.97;3.33;;;26.80;76.60;;;;;;5008835;28;20104;-46
2022/05/10 10:35:50;;;;;;;10.57;3.25;;;26.70;78.70;;;;;;5008969;28;20050;-47
2022/05/10 10:38:34;;;;;;;5.47;3.33;;;26.80;78.70;;;;;;5008780;28;20066;-46
2022/05/10 10:41:15;;;;;;;7.47;3.00;;;27.10;78.40;;;;;;5008836;28;20069;-47
2022/05/10 10:44:09;;;;;;;7.88;3.58;;;27.10;75.30;;;;;;5008149;28;20100;-46
2022/05/10 10:46:42;;;;;;;48.88;5.15;;;27.10;75.50;;;;;;5012007;28;20042;-49
2022/05/10 10:49:14;;;;;;;16.83;4.30;;;27.10;75.50;;;;;;5010636;28;20061;-46
2022/05/10 10:51:40;;;;;;;9.57;3.25;;;27.20;76.30;;;;;;5012466;28;20145;-46
2022/05/10 10:54:15;;;;;;;18.25;4.10;;;27.50;76.20;;;;;;5012454;28;20537;-48
2022/05/10 10:57:16;;;;;;;8.10;3.83;;;27.60;75.70;;;;;;5007963;28;20038;-44
2022/05/10 11:00:01;;;;;;;8.03;3.27;;;26.80;72.80;;;;;;5007424;28;20068;-42
2022/05/10 11:02:51;;;;;;;13.90;3.95;;;27.30;74.00;;;;;;5010016;28;20069;-41
2022/05/10 11:05:25;;;;;;;15.27;3.95;;;27.20;74.20;;;;;;5010142;28;20042;-43
2022/05/10 11:08:03;;;;;;;7.57;4.07;;;27.10;74.40;;;;;;5010701;28;20053;-57
2022/05/10 11:10:59;;;;;;;8.68;3.88;;;27.10;74.10;;;;;;5010807;28;20041;-50
2022/05/10 11:13:50;;;;;;;11.18;3.42;;;27.00;74.00;;;;;;5008214;28;20050;-63
2022/05/10 11:16:31;;;;;;;17.30;4.78;;;27.00;74.20;;;;;;5010056;28;20046;-50
2022/05/10 11:19:24;;;;;;;5.60;3.77;;;27.00;76.20;;;;;;5008550;28;20041;-51
2022/05/10 11:22:18;;;;;;;5.43;3.35;;;27.10;74.80;;;;;;5009771;28;20492;-53
2022/05/10 11:25:07;;;;;;;8.93;3.47;;;27.00;74.90;;;;;;5009323;28;20085;-53
2022/05/10 11:27:38;;;;;;;8.75;4.07;;;26.80;77.90;;;;;;5009232;28;20052;-61
2022/05/10 11:30:11;;;;;;;8.77;3.40;;;;;;;;;;5008271;28;20081;-42
2022/05/10 11:32:55;;;;;;;13.25;3.97;;;26.00;71.40;;;;;;5009618;28;20042;-41
2022/05/10 11:35:37;;;;;;;6.38;4.22;;;25.80;54.90;;;;;;5010459;28;20081;-44
2022/05/10 11:38:10;;;;;;;6.35;3.92;;;25.60;55.70;;;;;;5009483;28;20054;-44
2022/05/10 11:41:03;;;;;;;10.00;4.32;;;25.40;56.90;;;;;;5008205;28;20041;-45
2022/05/10 11:43:38;;;;;;;6.55;3.97;;;25.30;57.80;;;;;;5007161;28;20076;-43
2022/05/10 11:46:33;;;;;;;7.82;3.90;;;25.30;59.30;;;;;;5009498;28;20409;-48
2022/05/10 11:49:01;;;;;;;10.20;4.47;;;25.10;59.40;;;;;;5009755;28;20532;-43
2022/05/10 11:51:53;;;;;;;7.30;4.35;;;25.00;60.20;;;;;;5009499;28;20811;-41
2022/05/10 11:54:55;;;;;;;5.85;3.85;;;25.00;59.90;;;;;;5007776;28;20057;-43
2022/05/10 11:57:23;;;;;;;9.07;4.15;;;25.10;62.30;;;;;;5007917;28;20180;-46
2022/05/10 11:59:49;;;;;;;11.23;3.50;;;25.30;64.20;;;;;;5011287;28;20069;-46
2022/05/10 12:02:45;;;;;;;9.43;4.47;;;25.60;63.30;;;;;;5009718;28;20787;-43
2022/05/10 12:05:12;;;;;;;8.10;4.18;;;25.90;64.10;;;;;;5001631;28;20060;-45
2022/05/10 12:07:45;;;;;;;5.38;4.25;;;26.20;63.30;;;;;;5009371;28;20057;-43
2022/05/10 12:10:36;;;;;;;13.10;3.65;;;26.50;62.80;;;;;;5009887;28;20414;-45
2022/05/10 12:21:19;;;;;;;5.82;3.35;;;26.40;62.10;;;;;;5008796;28;20572;-43
2022/05/10 12:22:06;;;;;;;6.53;3.10;;;26.60;63.20;;;;;;5009390;28;20156;-44
2022/05/10 12:24:36;;;;;;;7.78;2.83;;;26.70;62.60;;;;;;5009023;28;20057;-46
2022/05/10 12:27:08;;;;;;;11.77;3.08;;;26.60;62.40;;;;;;5008838;28;20549;-45
2022/05/10 12:29:40;;;;;;;8.02;3.47;;;26.90;62.00;;;;;;5008642;28;20045;-44
2022/05/10 12:32:37;;;;;;;6.35;3.33;;;27.00;62.10;;;;;;5008825;28;20049;-45
2022/05/10 12:35:10;;;;;;;4.93;2.85;;;27.10;60.00;;;;;;5008394;28;20794;-42
2022/05/10 12:37:41;;;;;;;11.55;3.55;;;27.00;62.50;;;;;;5007974;28;20193;-43
2022/05/10 12:40:09;;;;;;;14.50;3.63;;;26.80;62.10;;;;;;5008129;28;20580;-55
2022/05/10 12:42:54;;;;;;;10.27;3.10;;;26.70;62.40;;;;;;5007468;28;20179;-45
2022/05/10 12:45:55;;;;;;;10.40;2.83;;;26.30;61.30;;;;;;5008380;28;20045;-56
2022/05/10 12:49:09;;;;;;;12.02;3.17;;;26.00;59.70;;;;;;5008253;28;20092;-47
2022/05/10 12:51:50;;;;;;;11.85;3.88;;;25.80;61.10;;;;;;4971488;28;20523;-43
2022/05/10 12:54:27;;;;;;;5.00;3.00;;;25.90;63.30;;;;;;5009426;28;20049;-41
2022/05/10 12:57:32;;;;;;;8.95;3.10;;;26.20;63.10;;;;;;5007584;28;20081;-43
2022/05/10 13:00:20;;;;;;;11.65;3.80;;;26.40;60.90;;;;;;5007869;28;20081;-45
2022/05/10 13:02:52;;;;;;;9.52;3.78;;;26.50;61.00;;;;;;5008261;28;20038;-42
2022/05/10 13:05:37;;;;;;;9.32;4.13;;;26.50;61.10;;;;;;5007917;28;20136;-45
2022/05/10 13:08:27;;;;;;;12.35;2.88;;;26.60;62.80;;;;;;5008083;28;20041;-43
2022/05/10 13:10:54;;;;;;;23.75;3.97;;;26.50;60.30;;;;;;5006326;28;20054;-38
2022/05/10 13:13:28;;;;;;;6.10;3.35;;;26.30;61.80;;;;;;5007989;28;20540;-38
2022/05/10 13:15:55;;;;;;;8.93;3.15;;;26.20;61.40;;;;;;5008293;28;20597;-38
2022/05/10 13:18:24;;;;;;;14.18;3.63;;;26.10;61.80;;;;;;5008306;28;20053;-39
2022/05/10 13:20:52;;;;;;;9.63;2.90;;;25.70;62.90;;;;;;5007310;28;20069;-47
2022/05/10 13:23:19;;;;;;;6.20;2.53;;;25.20;64.30;;;;;;5007604;28;20045;-48
2022/05/10 13:25:46;;;;;;;8.73;2.85;;;25.10;67.10;;;;;;5007296;28;20042;-47